Time;durP1;ratioP1;P1;durP2;ratioP2;P2;SDS_P1;SDS_P2;PMS_P1;PMS_P2;Temp;Humidity;BMP_temperature;BMP_pressure;BME280_temperature;BME280_humidity;BME280_pressure;Samples;Min_cycle;Max_cycle;Signal;HPM_P1;HPM_P2
2022/02/21 00:00:40;;;;;;;17.60;4.95;;;;;;;12.08;39.27;99724.09;5012544;28;20046;-82
2022/02/21 00:03:06;;;;;;;14.70;3.58;;;;;;;12.43;38.68;99731.72;5012741;28;20026;-77
2022/02/21 00:05:36;;;;;;;23.83;4.07;;;;;;;12.12;39.51;99733.22;5012654;28;20022;-77
2022/02/21 00:08:01;;;;;;;15.73;4.90;;;;;;;11.80;39.73;99724.09;5012880;28;20026;-78
2022/02/21 00:10:27;;;;;;;27.58;6.63;;;;;;;12.18;39.43;99739.25;5012746;28;20029;-76
2022/02/21 00:12:53;;;;;;;19.30;5.43;;;;;;;12.33;39.02;99726.78;5012688;28;20037;-76
2022/02/21 00:15:23;;;;;;;20.70;4.43;;;;;;;12.19;39.21;99749.06;5012622;28;20029;-77
2022/02/21 00:17:50;;;;;;;15.57;3.53;;;;;;;11.95;39.66;99749.94;5012639;28;20084;-76
2022/02/21 00:20:16;;;;;;;23.88;3.83;;;;;;;12.05;39.52;99722.06;5012582;28;20022;-77
2022/02/21 00:22:42;;;;;;;10.68;4.20;;;;;;;11.87;39.45;99764.56;5012642;28;20119;-78
2022/02/21 00:25:09;;;;;;;16.05;3.72;;;;;;;11.49;40.95;99730.16;5012527;28;20080;-78
2022/02/21 00:27:35;;;;;;;8.77;2.83;;;;;;;12.02;39.89;99754.84;5012605;28;20030;-77
2022/02/21 00:30:01;;;;;;;12.43;3.38;;;;;;;11.87;40.45;99748.13;5012559;28;20030;-77
2022/02/21 00:32:27;;;;;;;15.35;4.85;;;;;;;12.54;39.17;99760.22;5013896;28;20112;-77
2022/02/21 00:34:53;;;;;;;13.63;3.30;;;;;;;12.45;39.42;99740.41;5016487;28;20442;-80
2022/02/21 00:37:18;;;;;;;20.23;3.38;;;;;;;12.60;39.06;99753.34;5015326;28;20025;-76
2022/02/21 00:39:44;;;;;;;17.58;3.92;;;;;;;12.61;38.92;99751.38;5015115;28;20026;-76
2022/02/21 00:42:10;;;;;;;21.15;6.00;;;;;;;12.55;39.61;99755.56;5016411;28;20057;-75
2022/02/21 00:44:35;;;;;;;15.85;4.63;;;;;;;12.20;40.06;99743.25;5016282;28;20061;-76
2022/02/21 00:47:01;;;;;;;16.75;3.90;;;;;;;12.31;40.29;99742.72;5016176;28;20026;-76
2022/02/21 00:49:27;;;;;;;17.13;4.28;;;;;;;12.42;40.36;99741.91;5016199;28;20025;-76
2022/02/21 00:51:52;;;;;;;22.85;4.03;;;;;;;12.48;40.33;99747.94;5016249;28;20507;-76
2022/02/21 00:54:18;;;;;;;12.73;4.30;;;;;;;12.64;39.75;99761.66;5016010;28;20038;-75
2022/02/21 00:56:44;;;;;;;19.50;5.10;;;;;;;12.71;39.93;99754.44;5016074;28;20034;-76
2022/02/21 00:59:09;;;;;;;14.88;4.28;;;;;;;12.31;40.83;99756.44;5015802;28;20100;-76
2022/02/21 01:01:36;;;;;;;18.52;4.82;;;;;;;12.26;41.09;99764.91;5015987;28;20040;-77
2022/02/21 01:04:02;;;;;;;21.08;4.93;;;;;;;12.56;40.96;99760.69;5015668;28;20041;-77
2022/02/21 01:06:28;;;;;;;17.35;4.60;;;;;;;12.45;41.59;99756.84;5016163;28;20049;-76
2022/02/21 01:08:54;;;;;;;17.92;4.97;;;;;;;12.84;40.87;99760.63;5015931;28;20494;-77
2022/02/21 01:11:21;;;;;;;23.02;6.28;;;;;;;12.51;41.59;99760.91;5015789;28;20113;-82
2022/02/21 01:13:46;;;;;;;24.13;5.95;;;;;;;12.81;40.85;99760.53;5015778;28;20026;-77
2022/02/21 01:16:12;;;;;;;22.38;6.35;;;;;;;13.05;40.54;99755.69;5015737;28;20083;-77
2022/02/21 01:18:37;;;;;;;25.80;6.13;;;;;;;13.01;40.83;99762.25;5015704;28;20037;-83
2022/02/21 01:21:05;;;;;;;21.80;5.03;;;;;;;12.65;41.26;99744.88;5015638;28;20025;-77
2022/02/21 01:23:31;;;;;;;23.45;6.18;;;;;;;12.93;40.84;99744.03;5015601;28;20484;-77
2022/02/21 01:25:57;;;;;;;21.15;5.82;;;;;;;13.22;40.25;99754.56;5015494;28;20076;-77
2022/02/21 01:28:22;;;;;;;23.25;5.18;;;;;;;12.48;41.75;99754.22;5015540;28;20439;-78
2022/02/21 01:30:48;;;;;;;24.05;5.47;;;;;;;12.51;41.75;99760.91;5015488;28;20033;-77
2022/02/21 01:33:13;;;;;;;22.50;5.38;;;;;;;12.95;40.62;99772.69;5015341;28;20080;-78
2022/02/21 01:35:39;;;;;;;19.70;4.82;;;;;;;12.75;41.16;99763.53;5015435;28;20550;-77
2022/02/21 01:38:04;;;;;;;18.52;5.95;;;;;;;13.08;40.71;99767.94;5015491;28;20052;-77
2022/02/21 01:40:31;;;;;;;24.75;5.93;;;;;;;13.15;40.78;99773.59;5015300;28;20388;-77
2022/02/21 01:42:57;;;;;;;15.57;3.78;;;;;;;12.63;41.91;99757.34;5013737;28;20459;-77
2022/02/21 01:45:23;;;;;;;22.25;6.40;;;;;;;13.09;41.11;99765.97;5015144;28;20033;-78
2022/02/21 01:47:48;;;;;;;23.15;5.75;;;;;;;13.35;40.52;99735.28;5015165;28;20037;-77
2022/02/21 01:50:14;;;;;;;18.08;6.25;;;;;;;12.94;41.25;99765.63;5015125;28;20029;-76
2022/02/21 01:52:40;;;;;;;22.52;7.15;;;;;;;13.09;40.88;99772.25;5015042;28;20435;-82
2022/02/21 01:55:06;;;;;;;22.55;5.75;;;;;;;13.04;41.25;99767.03;5015063;28;20584;-78
2022/02/21 01:57:33;;;;;;;26.23;7.20;;;;;;;13.28;40.70;99777.84;5014967;28;20152;-77
2022/02/21 01:59:59;;;;;;;16.50;6.50;;;;;;;13.15;41.09;99770.84;5014936;28;20136;-77
2022/02/21 02:02:24;;;;;;;26.17;5.18;;;;;;;13.05;41.13;99771.34;5014521;28;20508;-77
2022/02/21 02:04:50;;;;;;;29.27;7.30;;;;;;;12.96;41.44;99785.25;5014808;28;20042;-77
2022/02/21 02:07:16;;;;;;;14.43;5.00;;;;;;;13.09;41.29;99815.34;5014823;28;20488;-77
2022/02/21 02:09:41;;;;;;;19.67;6.18;;;;;;;13.25;41.42;99825.22;5014839;28;20026;-77
2022/02/21 02:12:08;;;;;;;29.50;5.18;;;;;;;13.30;41.20;99794.78;5014643;28;20097;-76
2022/02/21 02:14:39;;;;;;;24.10;6.18;;;;;;;13.27;41.45;99803.69;5014693;28;20034;-77
2022/02/21 02:17:14;;;;;;;25.02;5.93;;;;;;;13.17;42.04;99812.44;5014698;28;20473;-76
2022/02/21 02:19:42;;;;;;;23.33;6.30;;;;;;;13.34;41.57;99808.56;5014552;28;20029;-77
2022/02/21 02:22:18;;;;;;;19.58;5.00;;;;;;;13.25;42.14;99821.66;5014539;28;20057;-77
2022/02/21 02:24:48;;;;;;;14.77;3.45;;;;;;;13.18;42.09;99815.97;5014489;28;20033;-77
2022/02/21 02:27:15;;;;;;;20.13;5.00;;;;;;;13.66;41.66;99814.84;5014542;28;20188;-76
2022/02/21 02:29:42;;;;;;;21.48;5.03;;;;;;;13.45;42.07;99775.91;5014439;28;20029;-76
2022/02/21 02:32:09;;;;;;;21.70;5.68;;;;;;;12.83;42.94;99832.25;5014392;28;20029;-77
2022/02/21 02:34:38;;;;;;;21.08;4.28;;;;;;;13.19;42.36;99790.13;5014317;28;20080;-77
2022/02/21 02:37:04;;;;;;;25.33;6.22;;;;;;;13.53;41.85;99816.91;5014323;28;20030;-76
2022/02/21 02:39:29;;;;;;;22.95;5.38;;;;;;;13.10;42.50;99812.25;5014286;28;20036;-81
2022/02/21 02:41:55;;;;;;;27.23;8.27;;;;;;;13.51;41.82;99796.44;5014150;28;20092;-77
2022/02/21 02:44:21;;;;;;;22.35;6.50;;;;;;;13.29;42.36;99811.56;5014128;28;20112;-78
2022/02/21 02:46:46;;;;;;;13.73;3.58;;;;;;;13.04;42.81;99830.91;5004739;28;20026;-77
2022/02/21 02:49:12;;;;;;;25.60;6.15;;;;;;;13.49;41.88;99834.41;4976942;28;20034;-77
2022/02/21 02:51:38;;;;;;;21.63;6.45;;;;;;;13.22;42.58;99812.19;4994431;28;20040;-76
2022/02/21 02:54:08;;;;;;;20.20;5.30;;;;;;;13.91;41.41;99820.13;4994267;28;20113;-76
2022/02/21 02:56:39;;;;;;;26.20;6.60;;;;;;;13.33;42.78;99812.47;4993311;28;20508;-77
2022/02/21 02:59:04;;;;;;;22.88;7.05;;;;;;;13.75;41.96;99818.22;4994119;28;20100;-76
2022/02/21 03:01:30;;;;;;;27.23;5.85;;;;;;;13.85;41.60;99822.34;4994220;28;20034;-77
2022/02/21 03:03:56;;;;;;;20.48;7.55;;;;;;;13.88;42.00;99829.88;4994109;28;20389;-79
2022/02/21 03:06:22;;;;;;;23.67;6.57;;;;;;;13.46;42.85;99829.66;4994100;28;20489;-77
2022/02/21 03:08:48;;;;;;;18.75;5.22;;;;;;;13.49;42.97;99821.50;4994033;28;20500;-76
2022/02/21 03:11:14;;;;;;;26.05;7.43;;;;;;;13.93;42.25;99812.34;4994054;28;20034;-77
2022/02/21 03:13:40;;;;;;;23.73;6.65;;;;;;;13.60;42.98;99828.06;4994061;28;20113;-77
2022/02/21 03:16:06;;;;;;;20.65;7.45;;;;;;;13.53;43.16;99844.34;4993966;28;20026;-77
2022/02/21 03:18:31;;;;;;;12.82;3.90;;;;;;;13.10;43.88;99853.38;4993928;28;20028;-77
2022/02/21 03:20:57;;;;;;;24.65;5.38;;;;;;;12.95;43.56;99843.19;4993865;28;20026;-77
2022/02/21 03:23:23;;;;;;;22.15;4.85;;;;;;;13.43;42.94;99839.38;4993877;28;20026;-77
2022/02/21 03:25:49;;;;;;;25.65;5.38;;;;;;;13.48;42.82;99841.84;4994959;28;20034;-77
2022/02/21 03:28:15;;;;;;;17.45;4.97;;;;;;;13.44;43.41;99862.13;4999538;28;20061;-76
2022/02/21 03:30:41;;;;;;;22.10;4.75;;;;;;;13.89;42.51;99823.22;4999382;28;20026;-80
2022/02/21 03:33:08;;;;;;;14.27;4.22;;;;;;;13.89;42.98;99840.50;4994288;28;20026;-82
2022/02/21 03:35:34;;;;;;;14.18;5.43;;;;;;;13.55;43.77;99858.50;4994186;28;20033;-79
2022/02/21 03:38:00;;;;;;;20.70;5.47;;;;;;;13.86;43.15;99843.97;4993899;28;20026;-76
2022/02/21 03:40:26;;;;;;;16.63;4.90;;;;;;;13.15;45.11;99844.09;4993578;28;20169;-77
2022/02/21 03:42:52;;;;;;;20.42;6.05;;;;;;;13.50;44.50;99850.53;4993456;28;20022;-77
2022/02/21 03:45:19;;;;;;;16.98;5.25;;;;;;;13.56;44.22;99840.09;4993371;28;20382;-77
2022/02/21 03:47:46;;;;;;;14.73;4.80;;;;;;;13.20;44.78;99830.94;4993414;28;20018;-76
2022/02/21 03:50:12;;;;;;;19.08;5.50;;;;;;;13.05;45.19;99818.78;4993370;28;20034;-77
2022/02/21 03:52:37;;;;;;;16.92;5.00;;;;;;;13.85;43.79;99841.56;4993273;28;20022;-76
2022/02/21 03:55:04;;;;;;;14.07;4.10;;;;;;;13.55;44.38;99861.25;4993293;28;20032;-77
2022/02/21 03:57:30;;;;;;;15.38;5.15;;;;;;;14.12;43.33;99845.31;4993182;28;20026;-77
2022/02/21 03:59:55;;;;;;;21.63;7.28;;;;;;;13.63;44.88;99851.25;4993160;28;20126;-77
2022/02/21 04:02:21;;;;;;;19.98;5.93;;;;;;;13.39;45.36;99862.41;4993274;28;20030;-79
2022/02/21 04:04:47;;;;;;;15.68;4.28;;;;;;;13.37;45.33;99845.47;4993235;28;20044;-77
2022/02/21 04:07:12;;;;;;;18.17;5.15;;;;;;;13.61;45.00;99850.81;4993123;28;20045;-76
2022/02/21 04:09:38;;;;;;;20.98;5.65;;;;;;;14.03;44.18;99842.78;4993268;28;20385;-77
2022/02/21 04:12:07;;;;;;;18.50;4.88;;;;;;;13.89;44.20;99836.94;4993154;28;20396;-76
2022/02/21 04:14:33;;;;;;;18.52;4.65;;;;;;;13.98;44.07;99842.25;4993061;28;20030;-77
2022/02/21 04:16:58;;;;;;;20.45;5.65;;;;;;;14.04;43.51;99832.59;4993131;28;20022;-76
2022/02/21 04:19:25;;;;;;;24.83;5.65;;;;;;;13.49;45.11;99862.66;4993035;28;20127;-76
2022/02/21 04:21:51;;;;;;;20.48;5.65;;;;;;;13.48;45.04;99852.03;4993100;28;20037;-76
2022/02/21 04:24:17;;;;;;;17.95;4.47;;;;;;;13.38;44.94;99860.81;4992964;28;20033;-77
2022/02/21 04:26:43;;;;;;;15.52;4.50;;;;;;;13.54;44.72;99884.38;4992993;28;20502;-77
2022/02/21 04:29:08;;;;;;;17.88;4.80;;;;;;;13.59;44.77;99881.34;4992990;28;20053;-77
2022/02/21 04:31:34;;;;;;;16.17;4.35;;;;;;;13.15;45.93;99871.50;4992957;28;20030;-77
2022/02/21 04:33:59;;;;;;;17.17;5.45;;;;;;;13.62;45.12;99895.53;4975534;28;20121;-76
2022/02/21 04:36:25;;;;;;;12.07;4.22;;;;;;;14.08;44.50;99926.88;4992903;28;20037;-77
2022/02/21 04:38:52;;;;;;;15.07;5.15;;;;;;;13.56;45.83;99920.47;4992938;28;20030;-77
2022/02/21 04:41:18;;;;;;;22.63;5.30;;;;;;;14.04;44.53;99914.97;4992822;28;20370;-81
2022/02/21 04:43:43;;;;;;;22.58;5.80;;;;;;;14.04;44.66;99928.72;4992840;28;20041;-77
2022/02/21 04:46:09;;;;;;;21.92;5.47;;;;;;;13.46;45.90;99933.94;4992763;28;20034;-77
2022/02/21 04:48:35;;;;;;;19.88;5.10;;;;;;;13.86;45.21;99917.31;4992863;28;20117;-77
2022/02/21 04:51:01;;;;;;;21.30;5.07;;;;;;;13.59;45.97;99941.72;4992863;28;20030;-80
2022/02/21 04:53:26;;;;;;;17.15;4.47;;;;;;;13.56;46.20;99915.00;4992759;28;20031;-77
2022/02/21 04:55:52;;;;;;;24.77;5.88;;;;;;;13.62;46.03;99929.25;4992611;28;20038;-78
2022/02/21 04:58:18;;;;;;;22.27;5.88;;;;;;;13.48;46.46;99948.09;4992724;28;20535;-76
2022/02/21 05:00:44;;;;;;;23.42;6.68;;;;;;;13.65;46.03;99956.00;4992493;28;20052;-77
2022/02/21 05:03:09;;;;;;;24.25;5.75;;;;;;;14.09;45.03;99942.97;4992667;28;20030;-76
2022/02/21 05:05:35;;;;;;;35.92;7.05;;;;;;;13.53;46.52;99986.28;4992554;28;20033;-77
2022/02/21 05:08:01;;;;;;;22.15;6.13;;;;;;;13.68;46.18;99970.94;4992617;28;20027;-77
2022/02/21 05:10:26;;;;;;;19.00;5.50;;;;;;;14.21;44.91;99964.09;4992662;28;20095;-76
2022/02/21 05:12:52;;;;;;;26.70;6.07;;;;;;;13.78;45.92;100001.44;4992584;28;20053;-77
2022/02/21 05:15:18;;;;;;;22.25;6.30;;;;;;;14.26;44.70;99988.53;4992557;28;20388;-79
2022/02/21 05:17:44;;;;;;;18.05;5.72;;;;;;;13.85;46.18;99965.94;4992698;28;20061;-77
2022/02/21 05:20:11;;;;;;;25.10;6.43;;;;;;;14.49;44.52;99996.94;4996128;28;20120;-78
2022/02/21 05:22:37;;;;;;;24.50;6.40;;;;;;;13.95;45.51;100022.28;4996112;28;20366;-77
2022/02/21 05:25:04;;;;;;;28.58;7.22;;;;;;;13.82;46.19;100027.03;4995987;28;20117;-77
2022/02/21 05:27:37;;;;;;;22.38;6.15;;;;;;;14.40;44.76;100008.09;4995941;28;20410;-77
2022/02/21 05:30:05;;;;;;;25.40;6.80;;;;;;;14.62;44.21;100053.44;4995973;28;20057;-77
2022/02/21 05:32:31;;;;;;;27.50;7.65;;;;;;;14.42;45.10;100038.78;4995809;28;20477;-77
2022/02/21 05:34:56;;;;;;;15.90;6.22;;;;;;;13.94;46.32;100041.88;4995823;28;20033;-77
2022/02/21 05:37:22;;;;;;;20.10;6.07;;;;;;;14.00;46.08;100034.97;4995808;28;20027;-77
2022/02/21 05:39:48;;;;;;;22.88;6.82;;;;;;;14.31;45.58;100034.97;4995760;28;20026;-77
2022/02/21 05:42:14;;;;;;;22.17;6.40;;;;;;;14.53;44.80;100058.31;4995767;28;20060;-77
2022/02/21 05:44:40;;;;;;;25.52;6.32;;;;;;;14.21;45.96;100089.66;4995628;28;20596;-77
2022/02/21 05:47:06;;;;;;;29.05;7.40;;;;;;;14.26;45.92;100103.94;4995708;28;20030;-76
2022/02/21 05:49:32;;;;;;;18.60;7.22;;;;;;;14.49;45.74;100117.09;4978081;28;20501;-78
2022/02/21 05:51:59;;;;;;;28.92;6.80;;;;;;;14.88;45.00;100118.84;4995382;28;20042;-76
2022/02/21 05:54:24;;;;;;;22.15;6.93;;;;;;;14.75;45.47;100136.63;4995434;28;20038;-76
2022/02/21 05:56:50;;;;;;;25.90;6.85;;;;;;;14.53;46.30;100140.78;4995494;28;20033;-76
2022/02/21 05:59:16;;;;;;;26.90;8.32;;;;;;;14.51;46.55;100140.34;4995224;28;20085;-77
2022/02/21 06:01:42;;;;;;;32.10;7.90;;;;;;;14.52;46.39;100169.44;4995387;28;20053;-76
2022/02/21 06:04:08;;;;;;;28.58;7.20;;;;;;;14.18;47.38;100176.34;4995125;28;20076;-77
2022/02/21 06:06:34;;;;;;;26.15;7.25;;;;;;;14.53;46.45;100151.00;4995286;28;20034;-77
2022/02/21 06:09:02;;;;;;;23.45;6.78;;;;;;;14.66;46.02;100156.06;4995238;28;20025;-77
2022/02/21 06:11:27;;;;;;;20.00;6.13;;;;;;;14.43;46.55;100130.28;4995496;28;20519;-78
2022/02/21 06:13:54;;;;;;;29.40;6.75;;;;;;;14.73;45.96;100169.16;4995116;28;20109;-77
2022/02/21 06:16:20;;;;;;;23.33;6.05;;;;;;;14.27;46.92;100163.22;4977662;28;20026;-77
2022/02/21 06:18:46;;;;;;;24.10;7.47;;;;;;;14.37;47.01;100181.97;4995031;28;20041;-77
2022/02/21 06:21:11;;;;;;;24.45;6.85;;;;;;;14.74;45.83;100192.00;4977551;28;20112;-77
2022/02/21 06:23:37;;;;;;;35.22;7.68;;;;;;;14.22;47.21;100226.69;4977449;28;20473;-77
2022/02/21 06:26:03;;;;;;;30.67;7.93;;;;;;;14.37;47.08;100214.16;4994866;28;20084;-78
2022/02/21 06:28:29;;;;;;;27.90;6.80;;;;;;;14.46;46.85;100225.03;4994906;28;20080;-77
2022/02/21 06:30:55;;;;;;;21.33;5.55;;;;;;;14.57;46.62;100215.09;4993736;28;20034;-78
2022/02/21 06:33:20;;;;;;;24.75;8.10;;;;;;;14.66;45.97;100223.97;4994751;28;20022;-77
2022/02/21 06:35:46;;;;;;;24.00;7.35;;;;;;;14.38;46.63;100230.28;4994748;28;20164;-78
2022/02/21 06:38:12;;;;;;;21.02;5.00;;;;;;;14.12;47.81;100191.47;4993475;28;20362;-79
2022/02/21 06:40:38;;;;;;;21.60;7.68;;;;;;;14.48;46.86;100209.75;4994726;28;20037;-80
2022/02/21 06:43:03;;;;;;;30.20;6.53;;;;;;;14.23;47.30;100211.81;4994641;28;20412;-77
2022/02/21 06:45:29;;;;;;;32.15;7.30;;;;;;;14.42;46.94;100252.38;4994475;28;20563;-77
2022/02/21 06:47:56;;;;;;;23.48;7.05;;;;;;;14.48;46.66;100262.00;4994569;28;20085;-76
2022/02/21 06:50:23;;;;;;;26.00;7.05;;;;;;;14.57;46.57;100270.09;4994418;28;20018;-76
2022/02/21 06:52:49;;;;;;;27.85;7.95;;;;;;;14.26;47.35;100266.06;4977002;28;20050;-76
2022/02/21 06:55:15;;;;;;;26.52;9.07;;;;;;;14.78;46.13;100284.41;4994388;28;20105;-77
2022/02/21 06:57:46;;;;;;;34.95;9.05;;;;;;;14.65;46.59;100294.66;4994307;28;20038;-77
2022/02/21 07:00:13;;;;;;;42.15;7.63;;;;;;;14.84;46.21;100299.50;4993996;28;20074;-76
2022/02/21 07:02:39;;;;;;;30.40;7.72;;;;;;;14.70;46.65;100312.88;4994221;28;20105;-78
2022/02/21 07:05:06;;;;;;;29.90;8.80;;;;;;;14.81;46.37;100318.66;4994067;28;20540;-76
2022/02/21 07:07:32;;;;;;;33.05;8.80;;;;;;;14.62;46.85;100353.13;4994265;28;20027;-77
2022/02/21 07:09:58;;;;;;;38.35;8.23;;;;;;;14.64;46.69;100348.06;4994109;28;20022;-77
2022/02/21 07:12:24;;;;;;;21.70;7.15;;;;;;;14.68;46.53;100353.69;5005856;28;20026;-77
2022/02/21 07:14:49;;;;;;;26.42;7.85;;;;;;;15.05;45.62;100368.06;5011728;28;20034;-76
2022/02/21 07:17:15;;;;;;;29.58;8.57;;;;;;;15.24;44.91;100387.44;5011850;28;20056;-79
2022/02/21 07:19:41;;;;;;;32.47;7.85;;;;;;;15.18;45.26;100410.06;5008594;28;20025;-78
2022/02/21 07:22:06;;;;;;;32.67;9.75;;;;;;;15.21;45.13;100414.88;5013080;28;20454;-77
2022/02/21 07:24:32;;;;;;;31.20;8.70;;;;;;;15.11;45.24;100393.38;5012020;28;20499;-77
2022/02/21 07:27:00;;;;;;;33.17;9.50;;;;;;;15.42;44.69;100431.97;5015078;28;20097;-76
2022/02/21 07:29:27;;;;;;;34.83;8.63;;;;;;;15.13;45.62;100444.16;5019099;28;20053;-78
2022/02/21 07:31:53;;;;;;;29.83;9.48;;;;;;;15.20;45.22;100432.56;5016878;28;20057;-76
2022/02/21 07:34:19;;;;;;;36.10;9.73;;;;;;;15.34;44.58;100476.16;5013415;28;20474;-76
2022/02/21 07:36:44;;;;;;;30.52;7.93;;;;;;;15.45;44.74;100458.78;5013020;28;20053;-81
2022/02/21 07:39:10;;;;;;;26.50;7.45;;;;;;;14.94;45.93;100458.56;5014187;28;20029;-80
2022/02/21 07:41:36;;;;;;;38.13;8.98;;;;;;;15.40;45.13;100470.06;5014971;28;20049;-78
2022/02/21 07:44:01;;;;;;;33.92;8.00;;;;;;;15.37;45.09;100484.53;5013288;28;20087;-78
2022/02/21 07:46:27;;;;;;;41.75;9.65;;;;;;;15.10;45.85;100490.81;5013213;28;20079;-78
2022/02/21 07:48:53;;;;;;;30.65;8.70;;;;;;;14.92;46.15;100517.81;5012416;28;20381;-77
2022/02/21 07:51:18;;;;;;;29.05;7.65;;;;;;;15.00;45.99;100533.41;5013048;28;20018;-78
2022/02/21 07:53:44;;;;;;;38.47;9.00;;;;;;;15.78;44.27;100543.09;5012882;28;20054;-78
2022/02/21 07:56:09;;;;;;;35.75;12.18;;;;;;;15.59;44.86;100576.00;5012956;28;20036;-78
2022/02/21 07:58:35;;;;;;;38.55;8.32;;;;;;;15.67;44.74;100575.06;5012858;28;20029;-77
2022/02/21 08:01:00;;;;;;;36.38;9.82;;;;;;;16.23;43.38;100594.28;5012754;28;20046;-81
2022/02/21 08:03:26;;;;;;;36.53;10.80;;;;;;;16.04;43.94;100604.03;5012859;28;20030;-80
2022/02/21 08:05:55;;;;;;;33.90;8.65;;;;;;;15.74;44.70;100598.09;5012708;28;20088;-77
2022/02/21 08:08:21;;;;;;;36.97;9.70;;;;;;;15.74;44.58;100613.84;5012855;28;20026;-82
2022/02/21 08:10:46;;;;;;;32.35;7.43;;;;;;;15.76;44.51;100625.31;5012862;28;20022;-77
2022/02/21 08:13:12;;;;;;;30.77;8.45;;;;;;;15.86;44.46;100640.53;5012872;28;20109;-82
2022/02/21 08:15:38;;;;;;;34.10;8.98;;;;;;;16.02;44.18;100646.88;5012570;28;20026;-81
2022/02/21 08:18:04;;;;;;;39.17;9.57;;;;;;;16.04;44.00;100653.66;5009665;28;20030;-77
2022/02/21 08:20:29;;;;;;;33.70;8.65;;;;;;;15.70;45.23;100663.31;5012358;28;20433;-77
2022/02/21 08:22:55;;;;;;;27.38;7.50;;;;;;;15.78;44.93;100672.56;5012167;28;20029;-82
2022/02/21 08:25:21;;;;;;;33.45;8.32;;;;;;;16.20;43.92;100694.25;4994457;28;20036;-77
2022/02/21 08:27:47;;;;;;;28.05;8.18;;;;;;;15.98;44.91;100657.81;5009624;28;20468;-76
2022/02/21 08:30:21;;;;;;;34.17;10.00;;;;;;;16.24;43.98;100725.44;5012172;28;20076;-76
2022/02/21 08:32:48;;;;;;;32.78;10.05;;;;;;;16.65;43.30;100724.22;5010270;28;20025;-83
2022/02/21 08:35:15;;;;;;;28.30;7.40;;;;;;;16.34;43.92;100747.03;4994543;28;20585;-83
2022/02/21 08:37:41;;;;;;;31.10;8.90;;;;;;;16.18;44.34;100743.41;5012216;28;20026;-79
2022/02/21 08:40:09;;;;;;;42.10;8.88;;;;;;;16.16;44.25;100754.78;4991844;28;20488;-77
2022/02/21 08:42:36;;;;;;;31.92;8.05;;;;;;;16.28;44.25;100770.47;4994438;28;20072;-82
2022/02/21 08:45:04;;;;;;;27.33;8.88;;;;;;;16.70;43.13;100759.84;4994476;28;20053;-82
2022/02/21 08:47:29;;;;;;;30.85;9.63;;;;;;;16.28;44.15;100782.31;5012206;28;20022;-79
2022/02/21 08:49:55;;;;;;;32.85;7.43;;;;;;;15.94;44.72;100789.16;4994097;28;20026;-80
2022/02/21 08:52:21;;;;;;;26.58;7.53;;;;;;;16.32;43.87;100787.91;5011968;28;20022;-77
2022/02/21 08:54:46;;;;;;;31.45;8.25;;;;;;;16.73;42.62;100816.28;5012764;28;20104;-78
2022/02/21 08:57:12;;;;;;;36.78;8.80;;;;;;;17.01;41.99;100803.25;5015795;28;20033;-78
2022/02/21 08:59:38;;;;;;;27.90;7.13;;;;;;;17.00;41.98;100822.91;5015583;28;20442;-83
2022/02/21 09:02:03;;;;;;;27.33;7.68;;;;;;;17.11;41.58;100837.81;5015642;28;20381;-77
2022/02/21 09:04:29;;;;;;;25.65;6.32;;;;;;;17.19;41.25;100831.31;5015608;28;20560;-83
2022/02/21 09:06:55;;;;;;;30.83;6.90;;;;;;;17.34;41.15;100838.78;5015564;28;20018;-76
2022/02/21 09:09:24;;;;;;;21.92;6.38;;;;;;;16.96;41.53;100838.56;5015825;28;20535;-77
2022/02/21 09:11:50;;;;;;;23.35;6.80;;;;;;;17.06;41.48;100849.09;5016040;28;20022;-78
2022/02/21 09:14:17;;;;;;;30.00;8.18;;;;;;;17.42;40.73;100834.25;5015936;28;20559;-82
2022/02/21 09:16:42;;;;;;;27.92;7.03;;;;;;;17.56;40.52;100850.38;4997592;28;20033;-76
2022/02/21 09:19:08;;;;;;;22.95;6.70;;;;;;;17.36;40.64;100874.34;5015732;28;20164;-76
2022/02/21 09:21:34;;;;;;;22.30;6.82;;;;;;;17.32;40.64;100890.81;5015796;28;20034;-79
2022/02/21 09:23:59;;;;;;;23.70;6.63;;;;;;;17.27;40.71;100898.56;4998301;28;20100;-76
2022/02/21 09:26:27;;;;;;;32.47;14.57;;;;;;;17.31;40.44;100894.75;5015514;28;20041;-77
2022/02/21 09:28:52;;;;;;;32.95;9.90;;;;;;;17.40;40.20;100897.34;5015569;28;20033;-77
2022/02/21 09:31:18;;;;;;;29.25;6.07;;;;;;;17.39;40.37;100895.72;5014544;28;20025;-76
2022/02/21 09:33:44;;;;;;;25.83;6.10;;;;;;;17.88;39.37;100914.75;5014113;28;20108;-81
2022/02/21 09:36:09;;;;;;;19.30;5.13;;;;;;;17.03;40.70;100864.41;5013955;28;20104;-79
2022/02/21 09:38:35;;;;;;;29.60;5.85;;;;;;;17.43;40.18;100913.19;5014001;28;20022;-76
2022/02/21 09:41:03;;;;;;;17.88;6.03;;;;;;;17.52;40.23;100924.88;4994918;28;20034;-76
2022/02/21 09:43:29;;;;;;;19.23;5.85;;;;;;;17.69;39.89;100920.97;5012136;28;20030;-76
2022/02/21 09:46:03;;;;;;;23.55;6.30;;;;;;;17.62;40.15;100931.84;5013363;28;20045;-76
2022/02/21 09:48:30;;;;;;;27.92;7.03;;;;;;;17.61;40.37;100955.09;5014723;28;20030;-76
2022/02/21 09:50:59;;;;;;;19.88;6.38;;;;;;;17.48;40.53;100970.94;5014799;28;20032;-75
2022/02/21 09:53:29;;;;;;;17.05;5.57;;;;;;;17.26;41.06;100968.75;5014788;28;20041;-77
2022/02/21 09:55:55;;;;;;;18.05;5.50;;;;;;;17.66;40.31;100988.78;5014733;28;20034;-76
2022/02/21 09:58:21;;;;;;;23.90;5.30;;;;;;;17.39;40.67;100995.16;5013794;28;20018;-82
2022/02/21 10:00:49;;;;;;;19.40;5.45;;;;;;;17.41;40.67;100988.13;5013558;28;20092;-76
2022/02/21 10:03:37;;;;;;;22.02;7.22;;;;;;;17.79;39.37;101016.38;5013710;28;20029;-76
2022/02/21 10:06:24;;;;;;;21.45;5.35;;;;;;;17.65;39.87;101014.81;5011154;28;20030;-76
2022/02/21 10:09:12;;;;;;;21.05;5.93;;;;;;;17.73;39.83;101018.59;5014689;28;20034;-76
2022/02/21 10:11:40;;;;;;;21.95;5.60;;;;;;;18.06;39.21;101034.03;5014788;28;20080;-82
2022/02/21 10:14:10;;;;;;;20.80;5.95;;;;;;;18.12;39.31;101033.44;4997040;28;20480;-75
2022/02/21 10:16:43;;;;;;;19.38;5.50;;;;;;;18.24;38.64;101038.88;5014769;28;20022;-76
2022/02/21 10:19:20;;;;;;;16.42;5.82;;;;;;;17.70;39.73;101063.50;5014304;28;20069;-76
2022/02/21 10:22:06;;;;;;;21.83;6.55;;;;;;;17.64;39.77;101032.56;5014152;28;20111;-80
2022/02/21 10:24:43;;;;;;;17.02;5.18;;;;;;;17.62;39.89;101056.19;4996223;28;20069;-76
2022/02/21 10:27:13;;;;;;;16.98;4.97;;;;;;;18.05;39.48;101049.84;5014001;28;20026;-75
2022/02/21 10:30:01;;;;;;;21.65;6.60;;;;;;;18.54;38.73;101083.47;4996942;28;20507;-83
2022/02/21 10:32:30;;;;;;;17.10;5.28;;;;;;;18.34;39.07;101029.22;4994627;28;20030;-75
2022/02/21 10:35:12;;;;;;;17.33;4.18;;;;;;;18.38;39.06;101099.28;5012235;28;20485;-77
2022/02/21 10:37:44;;;;;;;10.32;4.68;;;;;;;18.11;39.33;101103.72;5012415;28;20030;-75
2022/02/21 10:40:15;;;;;;;16.10;4.30;;;;;;;18.49;38.81;101105.06;5012146;28;20720;-83
2022/02/21 10:42:41;;;;;;;10.50;3.00;;;;;;;18.21;39.06;101143.88;5009302;28;20185;-76
2022/02/21 10:45:14;;;;;;;11.30;3.40;;;;;;;18.37;38.85;101138.38;5012033;28;20068;-76
2022/02/21 10:47:58;;;;;;;14.68;4.28;;;;;;;18.81;37.96;101136.31;5013221;28;20030;-77
2022/02/21 10:50:23;;;;;;;19.17;4.22;;;;;;;18.83;37.81;101136.78;5011515;28;20124;-82
2022/02/21 10:52:49;;;;;;;10.98;3.22;;;;;;;18.82;37.77;101157.34;5013671;28;20045;-76
2022/02/21 10:55:15;;;;;;;17.33;4.05;;;;;;;18.81;37.83;101166.78;5012648;28;20069;-84
2022/02/21 10:57:43;;;;;;;21.80;5.22;;;;;;;18.61;37.78;101176.94;5012789;28;20026;-77
2022/02/21 11:00:10;;;;;;;17.10;4.47;;;;;;;18.43;38.15;101198.59;5012496;28;20417;-76
2022/02/21 11:02:40;;;;;;;16.45;4.57;;;;;;;18.60;38.00;101169.81;4995098;28;20037;-83
2022/02/21 11:05:08;;;;;;;;;;;;;;;18.47;38.33;101198.72;5013056;28;20026;-81
2022/02/21 11:07:36;;;;;;;12.27;4.18;;;;;;;18.94;37.54;101203.47;5012779;28;19929;-82
2022/02/21 11:10:04;;;;;;;23.88;4.13;;;;;;;19.00;37.71;101205.63;5012622;28;20034;-76
2022/02/21 11:12:35;;;;;;;13.07;4.10;;;;;;;19.09;37.50;101219.28;5012556;28;20026;-76
2022/02/21 11:15:01;;;;;;;11.52;4.38;;;;;;;19.12;37.57;101216.63;4994918;28;20103;-77
2022/02/21 11:17:28;;;;;;;16.13;4.65;;;;;;;19.11;37.45;101231.59;5011705;28;20026;-75
2022/02/21 11:19:54;;;;;;;15.40;5.18;;;;;;;18.87;38.10;101244.84;5009768;28;20488;-76